This is the latest recevied weather packets stored in our database for station/object KD8DNO-13. If no packets are shown the sender has not sent any weather packets the latest 10 day(s).
| Time | Temp. | Humidity | Pressure | Rain* | Wind** | Luminosity | Snow |
|---|---|---|---|---|---|---|---|
| 1788032883 | 26.67° C | 57% | 1023.3 hPa | 0 mm | - | - | - |
| 1788032583 | 26.67° C | 56% | 1023.3 hPa | 0 mm | - | - | - |
| 1788032284 | 26.67° C | 59% | 1023.3 hPa | 0 mm | - | - | - |
| 1788031984 | 26.11° C | 58% | 1023.3 hPa | 0 mm | - | - | - |
| 1788031683 | 27.22° C | 56% | 1023.3 hPa | 0 mm | - | - | - |
| 1788031385 | 27.22° C | 54% | 1023.3 hPa | 0 mm | - | - | - |
| 1788031083 | 27.22° C | 53% | 1023.3 hPa | 0 mm | - | - | - |
| 1788030783 | 26.67° C | 57% | 1023.3 hPa | 0 mm | - | - | - |
| 1788030483 | 27.22° C | 54% | 1023.3 hPa | 0 mm | - | - | - |
| 1788030184 | 28.89° C | 52% | 1023.3 hPa | 0 mm | - | - | - |
| 1788029883 | 27.22° C | 56% | 1023.3 hPa | 0 mm | - | - | - |
| 1788029583 | 26.67° C | 58% | 1023.3 hPa | 0 mm | - | - | - |
| 1788029283 | 25.56° C | 56% | 1023.7 hPa | 0 mm | - | - | - |
| 1788028983 | 26.67° C | 57% | 1023.7 hPa | 0 mm | - | - | - |
| 1788028683 | 25° C | 60% | 1023.7 hPa | 0 mm | - | - | - |
| 1788028384 | 25.56° C | 62% | 1023.7 hPa | 0 mm | - | - | - |
| 1788028083 | 25.56° C | 61% | 1023.7 hPa | 0 mm | - | - | - |
| 1788027783 | 26.67° C | 59% | 1024 hPa | 0 mm | - | - | - |
| 1788027484 | 26.11° C | 61% | 1024 hPa | 0 mm | - | - | - |
| 1788027183 | 26.11° C | 57% | 1024 hPa | 0 mm | - | - | - |
| 1788026884 | 25.56° C | 61% | 1024 hPa | 0 mm | - | - | - |
| 1788026583 | 25.56° C | 58% | 1024.3 hPa | 0 mm | - | - | - |
| 1788026283 | 26.11° C | 57% | 1024.3 hPa | 0 mm | - | - | - |
| 1788025983 | 25.56° C | 59% | 1024.3 hPa | 0 mm | - | - | - |
| 1788025683 | 26.11° C | 58% | 1024.3 hPa | 0 mm | - | - | - |
* Rain latest hour (hover to see other rain measurements)
** Current wind speed in m/s (hover to see current wind gust speed)